createdAt,value
2018-12-30T00:01:37.957Z,4.47
2018-12-30T00:04:06.400Z,5.50
2018-12-30T00:06:35.297Z,4.07
2018-12-30T00:09:05.408Z,4.27
2018-12-30T00:11:34.248Z,4.70
2018-12-30T00:14:02.790Z,4.53
2018-12-30T00:16:31.244Z,5.13
2018-12-30T00:18:59.672Z,5.77
2018-12-30T00:21:28.180Z,5.00
2018-12-30T00:23:56.573Z,6.80
2018-12-30T00:26:25.045Z,6.50
2018-12-30T00:28:53.575Z,7.50
2018-12-30T00:31:22.099Z,8.17
2018-12-30T00:33:50.590Z,6.70
2018-12-30T00:36:19.037Z,8.57
2018-12-30T00:38:47.510Z,7.77
2018-12-30T00:41:15.913Z,7.80
2018-12-30T00:43:45.521Z,8.50
2018-12-30T00:46:13.939Z,7.03
2018-12-30T00:48:43.360Z,8.53
2018-12-30T00:51:16.980Z,8.40
2018-12-30T00:53:42.043Z,7.20
2018-12-30T00:56:10.431Z,6.60
2018-12-30T00:58:38.928Z,6.87
2018-12-30T01:01:07.409Z,6.60
2018-12-30T01:03:35.836Z,6.43
2018-12-30T01:06:04.294Z,5.90
2018-12-30T01:08:32.753Z,5.10
2018-12-30T01:11:01.177Z,5.07
2018-12-30T01:13:29.623Z,4.97
2018-12-30T01:15:58.155Z,4.20
2018-12-30T01:18:26.683Z,3.93
2018-12-30T01:20:55.214Z,5.03
2018-12-30T01:23:23.699Z,3.47
2018-12-30T01:25:52.526Z,4.97
2018-12-30T01:28:20.941Z,7.47
2018-12-30T01:30:49.463Z,3.60
2018-12-30T01:33:17.920Z,2.23
2018-12-30T01:35:46.622Z,2.67
2018-12-30T01:38:15.040Z,2.30
2018-12-30T01:40:43.526Z,2.20
2018-12-30T01:43:12.125Z,2.20
2018-12-30T01:45:40.550Z,2.13
2018-12-30T01:48:08.953Z,2.13
2018-12-30T01:50:37.471Z,2.37
2018-12-30T01:53:06.161Z,1.73
2018-12-30T01:55:34.618Z,2.20
2018-12-30T01:58:03.123Z,2.20
2018-12-30T02:00:31.650Z,2.33
2018-12-30T02:03:00.037Z,2.47
2018-12-30T02:05:28.596Z,2.30
2018-12-30T02:07:57.084Z,2.47
2018-12-30T02:10:25.616Z,2.43
2018-12-30T02:12:54.160Z,1.97
2018-12-30T02:15:22.587Z,2.60
2018-12-30T02:17:51.041Z,2.87
2018-12-30T02:20:19.498Z,2.67
2018-12-30T02:22:47.943Z,3.00
2018-12-30T02:25:16.430Z,3.27
2018-12-30T02:27:44.863Z,2.90
2018-12-30T02:30:13.670Z,2.80
2018-12-30T02:32:42.451Z,2.67
2018-12-30T02:35:10.962Z,2.83
2018-12-30T02:37:39.383Z,2.47
2018-12-30T02:40:07.940Z,1.90
2018-12-30T02:42:36.413Z,2.53
2018-12-30T02:45:05.392Z,2.47
2018-12-30T02:47:33.884Z,2.60
2018-12-30T02:50:02.360Z,2.60
2018-12-30T02:52:30.788Z,2.97
2018-12-30T02:54:59.177Z,2.70
2018-12-30T02:57:27.855Z,2.90
2018-12-30T02:59:56.254Z,2.97
2018-12-30T03:02:24.685Z,2.67
2018-12-30T03:04:53.257Z,2.77
2018-12-30T03:07:21.649Z,3.53
2018-12-30T03:09:50.353Z,2.13
2018-12-30T03:12:18.777Z,2.83
2018-12-30T03:14:47.176Z,3.07
2018-12-30T03:17:15.597Z,3.10
2018-12-30T03:19:44.059Z,3.33
2018-12-30T03:22:12.774Z,2.73
2018-12-30T03:24:41.149Z,3.40
2018-12-30T03:27:09.653Z,2.30
2018-12-30T03:29:38.092Z,2.07
2018-12-30T03:32:06.479Z,3.00
2018-12-30T03:34:34.993Z,2.23
2018-12-30T03:37:03.422Z,2.97
2018-12-30T03:39:31.800Z,2.87
2018-12-30T03:42:00.518Z,2.30
2018-12-30T03:44:28.947Z,2.13
2018-12-30T03:46:57.382Z,2.03
2018-12-30T03:49:26.042Z,1.83
2018-12-30T03:51:54.700Z,1.87
2018-12-30T03:54:23.074Z,1.87
2018-12-30T03:56:51.550Z,1.70
2018-12-30T03:59:20.003Z,1.70
2018-12-30T04:01:48.432Z,1.80
2018-12-30T04:04:16.900Z,1.00
2018-12-30T04:06:45.363Z,1.20
2018-12-30T04:09:13.775Z,1.00
2018-12-30T04:11:42.261Z,0.70
2018-12-30T04:14:10.634Z,1.03
2018-12-30T04:16:39.046Z,1.00
2018-12-30T04:19:07.535Z,1.20
2018-12-30T04:21:35.968Z,0.73
2018-12-30T04:24:04.346Z,0.77
2018-12-30T04:26:32.765Z,0.80
2018-12-30T04:29:01.161Z,0.80
2018-12-30T04:31:29.549Z,0.80
2018-12-30T04:33:57.996Z,0.70
2018-12-30T04:36:26.430Z,0.60
2018-12-30T04:38:54.849Z,0.90
2018-12-30T04:41:23.551Z,0.50
2018-12-30T04:43:51.965Z,0.70
2018-12-30T04:46:20.383Z,0.63
2018-12-30T04:48:48.870Z,0.33
2018-12-30T04:51:17.261Z,0.53
2018-12-30T04:53:45.662Z,0.83
2018-12-30T04:56:14.143Z,0.50
2018-12-30T04:58:42.581Z,0.70
2018-12-30T05:01:11.905Z,0.40
2018-12-30T05:03:40.347Z,0.60
2018-12-30T05:06:08.770Z,1.20
2018-12-30T05:08:37.150Z,1.03
2018-12-30T05:11:05.665Z,0.50
2018-12-30T05:13:34.119Z,0.80
2018-12-30T05:16:02.603Z,0.60
2018-12-30T05:18:31.067Z,0.97
2018-12-30T05:20:59.466Z,0.50
2018-12-30T05:23:27.955Z,1.00
2018-12-30T05:25:57.770Z,0.80
2018-12-30T05:28:26.215Z,0.80
2018-12-30T05:30:54.660Z,0.80
2018-12-30T05:33:23.388Z,0.77
2018-12-30T05:35:51.834Z,1.00
2018-12-30T05:38:20.267Z,0.90
2018-12-30T05:40:48.717Z,1.30
2018-12-30T05:43:17.147Z,0.67
2018-12-30T05:45:45.691Z,0.80
2018-12-30T05:48:14.175Z,0.93
2018-12-30T05:50:42.603Z,0.63
2018-12-30T05:53:10.989Z,1.27
2018-12-30T05:55:39.496Z,0.80
2018-12-30T05:58:08.007Z,0.77
2018-12-30T06:00:36.437Z,1.30
2018-12-30T06:03:04.897Z,1.83
2018-12-30T06:05:33.410Z,3.60
2018-12-30T06:08:01.830Z,2.47
2018-12-30T06:10:30.318Z,1.30
2018-12-30T06:12:58.722Z,2.40
2018-12-30T06:15:29.133Z,1.30
2018-12-30T06:17:57.622Z,2.30
2018-12-30T06:20:26.073Z,2.10
2018-12-30T06:22:54.458Z,1.93
2018-12-30T06:25:22.980Z,1.90
2018-12-30T06:27:51.398Z,2.17
2018-12-30T06:30:19.859Z,2.17
2018-12-30T06:32:50.138Z,2.70
2018-12-30T06:35:18.561Z,2.50
2018-12-30T06:37:46.980Z,2.27
2018-12-30T06:40:16.423Z,2.10
2018-12-30T06:42:44.956Z,3.53
2018-12-30T06:45:13.415Z,2.53
2018-12-30T06:47:43.092Z,2.67
2018-12-30T06:50:11.495Z,2.27
2018-12-30T06:52:39.938Z,2.53
2018-12-30T06:55:08.420Z,3.33
2018-12-30T06:57:36.841Z,2.13
2018-12-30T07:00:06.192Z,2.40
2018-12-30T07:02:34.670Z,2.53
2018-12-30T07:05:03.073Z,2.43
2018-12-30T07:07:31.494Z,3.37
2018-12-30T07:09:59.978Z,3.17
2018-12-30T07:12:28.394Z,3.00
2018-12-30T07:14:56.820Z,2.87
2018-12-30T07:17:25.293Z,2.90
2018-12-30T07:19:53.737Z,3.97
2018-12-30T07:22:22.176Z,2.93
2018-12-30T07:24:50.609Z,2.77
2018-12-30T07:27:19.001Z,2.80
2018-12-30T07:29:47.425Z,2.87
2018-12-30T07:32:15.862Z,2.83
2018-12-30T07:34:44.278Z,4.63
2018-12-30T07:37:12.775Z,3.37
2018-12-30T07:39:41.267Z,3.80
2018-12-30T07:42:09.717Z,3.03
2018-12-30T07:44:38.213Z,3.00
2018-12-30T07:47:06.680Z,2.57
2018-12-30T07:49:35.205Z,3.07
2018-12-30T07:52:03.630Z,3.00
2018-12-30T07:54:32.102Z,2.63
2018-12-30T07:57:00.617Z,3.03
2018-12-30T07:59:29.041Z,2.40
2018-12-30T08:01:57.477Z,2.67
2018-12-30T08:04:25.939Z,2.80
2018-12-30T08:06:54.356Z,2.50
2018-12-30T08:09:22.850Z,3.07
2018-12-30T08:11:51.234Z,3.13
2018-12-30T08:14:19.639Z,2.50
2018-12-30T08:16:48.056Z,2.57
2018-12-30T08:19:16.568Z,2.30
2018-12-30T08:21:45.147Z,3.37
2018-12-30T08:24:13.867Z,2.73
2018-12-30T08:26:42.273Z,2.33
2018-12-30T08:29:10.735Z,4.20
2018-12-30T08:31:39.192Z,3.00
2018-12-30T08:34:07.638Z,2.83
2018-12-30T08:36:36.467Z,2.30
2018-12-30T08:39:06.643Z,3.20
2018-12-30T08:41:35.063Z,3.10
2018-12-30T08:44:03.480Z,3.10
2018-12-30T08:46:32.203Z,3.93
2018-12-30T08:49:00.605Z,3.07
2018-12-30T08:51:29.103Z,3.03
2018-12-30T08:53:57.688Z,2.40
2018-12-30T08:56:26.069Z,2.77
2018-12-30T08:58:54.548Z,2.63
2018-12-30T09:01:28.410Z,3.00
2018-12-30T09:03:53.144Z,2.30
2018-12-30T09:06:21.562Z,2.33
2018-12-30T09:08:50.081Z,2.80
2018-12-30T09:11:18.495Z,3.37
2018-12-30T09:13:46.958Z,2.20
2018-12-30T09:16:15.434Z,3.70
2018-12-30T09:18:43.815Z,2.83
2018-12-30T09:21:12.209Z,3.10
2018-12-30T09:23:40.666Z,2.60
2018-12-30T09:26:09.084Z,3.00
2018-12-30T09:28:37.496Z,2.40
2018-12-30T09:31:05.983Z,2.13
2018-12-30T09:33:34.375Z,2.37
2018-12-30T09:36:02.788Z,2.40
2018-12-30T09:38:31.241Z,2.60
2018-12-30T09:40:59.661Z,3.67
2018-12-30T09:43:28.127Z,2.47
2018-12-30T09:45:56.606Z,3.37
2018-12-30T09:48:24.997Z,3.00
2018-12-30T09:50:53.447Z,2.67
2018-12-30T09:53:21.857Z,2.87
2018-12-30T09:55:50.250Z,2.43
2018-12-30T09:58:18.641Z,3.00
2018-12-30T10:00:47.616Z,3.03
2018-12-30T10:03:17.253Z,2.90
2018-12-30T10:05:45.701Z,2.53
2018-12-30T10:08:14.130Z,2.30
2018-12-30T10:10:42.549Z,2.27
2018-12-30T10:13:10.968Z,2.53
2018-12-30T10:15:39.410Z,1.83
2018-12-30T10:18:07.828Z,2.13
2018-12-30T10:20:36.228Z,2.37
2018-12-30T10:23:04.688Z,2.10
2018-12-30T10:25:33.123Z,1.83
2018-12-30T10:28:01.548Z,1.87
2018-12-30T10:30:30.023Z,2.40
2018-12-30T10:32:58.431Z,1.87
2018-12-30T10:35:26.867Z,1.97
2018-12-30T10:37:55.293Z,1.80
2018-12-30T10:40:23.706Z,1.57
2018-12-30T10:42:52.112Z,1.90
2018-12-30T10:45:20.576Z,3.30
2018-12-30T10:47:49.058Z,2.53
2018-12-30T10:50:17.430Z,1.80
2018-12-30T10:52:45.891Z,1.60
2018-12-30T10:55:14.305Z,2.00
2018-12-30T10:57:42.726Z,2.20
2018-12-30T11:00:11.322Z,2.10
2018-12-30T11:02:39.750Z,1.17
2018-12-30T11:05:08.160Z,1.27
2018-12-30T11:07:36.671Z,1.40
2018-12-30T11:10:06.014Z,2.00
2018-12-30T11:12:34.450Z,1.13
2018-12-30T11:15:03.226Z,1.90
2018-12-30T11:17:31.640Z,1.60
2018-12-30T11:20:00.083Z,1.47
2018-12-30T11:22:28.611Z,2.50
2018-12-30T11:24:58.084Z,1.70
2018-12-30T11:27:26.526Z,4.43
2018-12-30T11:29:54.967Z,4.50
2018-12-30T11:32:24.005Z,2.70
2018-12-30T11:34:52.389Z,1.90
2018-12-30T11:37:20.871Z,3.53
2018-12-30T11:39:49.302Z,1.60
2018-12-30T11:42:17.721Z,1.30
2018-12-30T11:44:46.239Z,2.07
2018-12-30T11:47:14.641Z,1.77
2018-12-30T11:49:43.029Z,2.03
2018-12-30T11:52:11.497Z,1.47
2018-12-30T11:54:39.938Z,1.10
2018-12-30T11:57:08.346Z,1.00
2018-12-30T11:59:36.862Z,1.30
2018-12-30T12:02:05.328Z,1.37
2018-12-30T12:04:33.743Z,1.13
2018-12-30T12:07:02.192Z,1.07
2018-12-30T12:09:30.671Z,1.53
2018-12-30T12:11:59.107Z,1.17
2018-12-30T12:14:27.570Z,1.20
2018-12-30T12:16:56.010Z,1.20
2018-12-30T12:19:24.426Z,1.50
2018-12-30T12:21:52.881Z,0.90
2018-12-30T12:24:24.534Z,1.07
2018-12-30T12:26:51.480Z,1.30
2018-12-30T12:29:19.949Z,0.87
2018-12-30T12:31:48.398Z,1.00
2018-12-30T12:34:17.574Z,1.20
2018-12-30T12:36:46.052Z,1.47
2018-12-30T12:39:14.522Z,0.87
2018-12-30T12:41:42.992Z,0.60
2018-12-30T12:44:11.462Z,0.90
2018-12-30T12:46:40.630Z,1.90
2018-12-30T12:49:09.053Z,0.80
2018-12-30T12:51:37.510Z,1.47
2018-12-30T12:54:05.954Z,1.57
2018-12-30T12:56:34.383Z,1.10
2018-12-30T12:59:02.868Z,1.30
2018-12-30T13:01:31.273Z,1.03
2018-12-30T13:03:59.698Z,0.83
2018-12-30T13:06:28.109Z,0.83
2018-12-30T13:08:56.539Z,1.37
2018-12-30T13:11:24.954Z,1.00
2018-12-30T13:13:53.419Z,1.33
2018-12-30T13:16:21.840Z,1.47
2018-12-30T13:18:50.253Z,1.30
2018-12-30T13:21:18.686Z,2.47
2018-12-30T13:23:47.132Z,2.30
2018-12-30T13:26:15.567Z,2.80
2018-12-30T13:28:44.071Z,1.83
2018-12-30T13:31:12.482Z,1.50
2018-12-30T13:33:40.908Z,2.27
2018-12-30T13:36:10.096Z,2.40
2018-12-30T13:38:38.559Z,3.33
2018-12-30T13:41:07.322Z,2.63
2018-12-30T13:43:35.778Z,2.60
2018-12-30T13:46:04.166Z,1.73
2018-12-30T13:48:32.848Z,2.10
2018-12-30T13:51:01.257Z,1.63
2018-12-30T13:53:29.717Z,2.33
2018-12-30T13:55:58.863Z,2.07
2018-12-30T13:58:27.328Z,2.23
2018-12-30T14:00:55.738Z,2.27
2018-12-30T14:03:24.151Z,2.00
2018-12-30T14:05:52.560Z,1.70
2018-12-30T14:08:21.011Z,1.70
2018-12-30T14:10:49.422Z,2.50
2018-12-30T14:13:18.020Z,1.77
2018-12-30T14:15:51.034Z,2.83
2018-12-30T14:18:16.823Z,2.50
2018-12-30T14:20:45.723Z,3.80
2018-12-30T14:23:14.231Z,1.43
2018-12-30T14:25:42.651Z,2.83
2018-12-30T14:28:11.089Z,1.50
2018-12-30T14:30:39.515Z,1.37
2018-12-30T14:33:07.994Z,1.53
2018-12-30T14:35:36.398Z,1.47
2018-12-30T14:38:04.787Z,1.13
2018-12-30T14:40:33.267Z,1.80
2018-12-30T14:43:01.721Z,1.20
2018-12-30T14:45:30.110Z,1.73
2018-12-30T14:47:58.528Z,1.77
2018-12-30T14:50:27.690Z,1.83
2018-12-30T14:52:56.159Z,1.90
2018-12-30T14:55:24.537Z,2.20
2018-12-30T14:57:53.035Z,2.00
2018-12-30T15:00:21.433Z,1.40
2018-12-30T15:02:49.827Z,2.30
2018-12-30T15:05:18.257Z,3.00
2018-12-30T15:07:46.697Z,2.40
2018-12-30T15:10:15.089Z,3.00
2018-12-30T15:12:43.633Z,2.00
2018-12-30T15:15:12.085Z,1.70
2018-12-30T15:17:40.604Z,1.87
2018-12-30T15:20:09.353Z,1.57
2018-12-30T15:22:37.775Z,1.77
2018-12-30T15:25:11.560Z,2.10
2018-12-30T15:27:36.552Z,2.13
2018-12-30T15:30:06.812Z,2.43
2018-12-30T15:32:35.240Z,1.87
2018-12-30T15:35:04.157Z,2.07
2018-12-30T15:37:32.611Z,2.50
2018-12-30T15:40:01.007Z,3.10
2018-12-30T15:42:29.522Z,2.80
2018-12-30T15:44:58.085Z,2.33
2018-12-30T15:47:26.577Z,2.30
2018-12-30T15:49:55.014Z,1.97
2018-12-30T15:52:23.414Z,2.07
2018-12-30T15:54:51.998Z,1.67
2018-12-30T15:57:20.669Z,2.00
2018-12-30T15:59:49.132Z,2.03
2018-12-30T16:02:17.595Z,1.10
2018-12-30T16:04:46.021Z,1.70
2018-12-30T16:07:14.443Z,2.20
2018-12-30T16:09:42.866Z,1.67
2018-12-30T16:12:11.349Z,1.90
2018-12-30T16:14:39.753Z,2.20
2018-12-30T16:17:08.228Z,1.90
2018-12-30T16:19:36.716Z,2.00
2018-12-30T16:22:05.189Z,1.87
2018-12-30T16:24:33.665Z,2.17
2018-12-30T16:27:02.164Z,2.60
2018-12-30T16:29:30.541Z,2.60
2018-12-30T16:31:59.330Z,2.77
2018-12-30T16:34:27.753Z,2.40
2018-12-30T16:36:56.207Z,3.00
2018-12-30T16:39:24.658Z,2.63
2018-12-30T16:41:53.105Z,3.43
2018-12-30T16:44:21.518Z,4.33
2018-12-30T16:46:49.939Z,4.10
2018-12-30T16:49:18.362Z,3.00
2018-12-30T16:51:46.902Z,5.43
2018-12-30T16:54:15.334Z,5.53
2018-12-30T16:56:43.834Z,5.57
2018-12-30T16:59:12.281Z,3.93
2018-12-30T17:01:40.692Z,3.17
2018-12-30T17:04:09.144Z,5.50
2018-12-30T17:06:37.601Z,6.23
2018-12-30T17:09:06.520Z,4.00
2018-12-30T17:11:34.961Z,3.97
2018-12-30T17:14:03.382Z,4.27
2018-12-30T17:16:31.792Z,3.27
2018-12-30T17:19:00.248Z,4.23
2018-12-30T17:21:28.683Z,3.27
2018-12-30T17:23:57.092Z,3.47
2018-12-30T17:26:25.620Z,3.00
2018-12-30T17:28:54.038Z,3.40
2018-12-30T17:31:22.471Z,3.80
2018-12-30T17:33:50.936Z,3.00
2018-12-30T17:36:19.384Z,2.20
2018-12-30T17:38:47.833Z,3.90
2018-12-30T17:41:16.457Z,4.13
2018-12-30T17:43:44.912Z,3.07
2018-12-30T17:46:18.194Z,2.33
2018-12-30T17:48:43.464Z,2.70
2018-12-30T17:51:11.871Z,2.27
2018-12-30T17:53:40.292Z,2.10
2018-12-30T17:56:08.751Z,2.20
2018-12-30T17:58:37.246Z,2.40
2018-12-30T18:01:05.692Z,3.57
2018-12-30T18:03:34.167Z,3.40
2018-12-30T18:06:02.608Z,4.17
2018-12-30T18:08:31.046Z,3.97
2018-12-30T18:10:59.511Z,2.63
2018-12-30T18:13:27.917Z,3.43
2018-12-30T18:15:56.368Z,3.50
2018-12-30T18:18:24.796Z,4.60
2018-12-30T18:20:53.366Z,5.13
2018-12-30T18:23:21.854Z,4.17
2018-12-30T18:25:50.325Z,5.50
2018-12-30T18:28:18.751Z,36.80
2018-12-30T18:30:47.228Z,57.30
2018-12-30T18:33:15.834Z,72.70
2018-12-30T18:35:44.373Z,7.80
2018-12-30T18:38:12.989Z,5.73
2018-12-30T18:40:41.423Z,5.00
2018-12-30T18:43:09.935Z,3.60
2018-12-30T18:45:38.370Z,50.17
2018-12-30T18:48:06.833Z,45.27
2018-12-30T18:50:35.234Z,9.43
2018-12-30T18:53:03.746Z,5.07
2018-12-30T18:55:32.196Z,7.20
2018-12-30T18:58:00.639Z,7.50
2018-12-30T19:00:29.076Z,7.00
2018-12-30T19:02:57.561Z,4.67
2018-12-30T19:05:25.974Z,4.70
2018-12-30T19:07:54.395Z,7.10
2018-12-30T19:10:22.840Z,4.10
2018-12-30T19:12:51.251Z,4.53
2018-12-30T19:15:19.641Z,5.80
2018-12-30T19:17:48.105Z,4.07
2018-12-30T19:20:16.596Z,3.60
2018-12-30T19:22:45.107Z,3.07
2018-12-30T19:25:13.637Z,3.40
2018-12-30T19:27:42.088Z,2.43
2018-12-30T19:30:10.826Z,3.00
2018-12-30T19:32:39.527Z,3.33
2018-12-30T19:35:07.961Z,5.00
2018-12-30T19:37:36.425Z,2.80
2018-12-30T19:40:08.082Z,4.60
2018-12-30T19:42:36.529Z,4.30
2018-12-30T19:45:06.277Z,4.93
2018-12-30T19:47:34.767Z,4.70
2018-12-30T19:50:03.176Z,2.70
2018-12-30T19:52:31.569Z,2.90
2018-12-30T19:55:00.243Z,2.50
2018-12-30T19:57:28.713Z,2.37
2018-12-30T19:59:57.097Z,2.20
2018-12-30T20:02:25.574Z,4.00
2018-12-30T20:04:53.982Z,3.77
2018-12-30T20:07:22.369Z,3.47
2018-12-30T20:09:50.817Z,3.53
2018-12-30T20:12:19.247Z,5.50
2018-12-30T20:14:47.690Z,4.57
2018-12-30T20:17:16.113Z,8.40
2018-12-30T20:19:44.529Z,2.50
2018-12-30T20:22:13.013Z,1.80
2018-12-30T20:24:41.474Z,6.03
2018-12-30T20:27:09.899Z,4.33
2018-12-30T20:29:38.277Z,4.40
2018-12-30T20:32:06.821Z,2.43
2018-12-30T20:34:35.198Z,2.37
2018-12-30T20:37:03.626Z,5.43
2018-12-30T20:39:32.086Z,1.80
2018-12-30T20:42:00.482Z,4.30
2018-12-30T20:44:28.873Z,3.13
2018-12-30T20:46:57.348Z,3.40
2018-12-30T20:49:25.734Z,2.80
2018-12-30T20:51:54.132Z,2.50
2018-12-30T20:54:22.557Z,2.03
2018-12-30T20:56:50.976Z,6.13
2018-12-30T20:59:19.369Z,2.07
2018-12-30T21:01:47.837Z,2.00
2018-12-30T21:04:17.251Z,2.20
2018-12-30T21:06:45.645Z,3.30
2018-12-30T21:09:14.077Z,2.83
2018-12-30T21:11:42.522Z,3.70
2018-12-30T21:14:10.996Z,2.50
2018-12-30T21:16:39.478Z,5.80
2018-12-30T21:19:07.889Z,3.53
2018-12-30T21:21:36.281Z,5.67
2018-12-30T21:24:04.740Z,3.00
2018-12-30T21:26:33.129Z,3.40
2018-12-30T21:29:01.550Z,6.43
2018-12-30T21:31:30.060Z,4.00
2018-12-30T21:33:58.463Z,3.70
2018-12-30T21:36:26.861Z,3.90
2018-12-30T21:38:55.356Z,4.17
2018-12-30T21:41:23.762Z,2.27
2018-12-30T21:43:52.216Z,2.30
2018-12-30T21:46:20.680Z,2.70
2018-12-30T21:48:49.087Z,2.50
2018-12-30T21:51:17.518Z,2.10
2018-12-30T21:53:45.939Z,3.17
2018-12-30T21:56:14.343Z,7.87
2018-12-30T21:58:42.765Z,9.77
2018-12-30T22:01:11.225Z,2.47
2018-12-30T22:03:39.665Z,4.40
2018-12-30T22:06:08.183Z,4.93
2018-12-30T22:08:36.657Z,5.57
2018-12-30T22:11:05.066Z,5.60
2018-12-30T22:13:33.464Z,4.10
2018-12-30T22:16:01.946Z,5.27
2018-12-30T22:18:30.416Z,4.40
2018-12-30T22:20:58.846Z,4.27
2018-12-30T22:23:27.380Z,4.87
2018-12-30T22:25:55.786Z,6.60
2018-12-30T22:28:24.210Z,5.77
2018-12-30T22:30:52.661Z,5.63
2018-12-30T22:33:21.053Z,4.73
2018-12-30T22:35:49.464Z,3.10
2018-12-30T22:38:17.901Z,3.93
2018-12-30T22:40:46.348Z,3.17
2018-12-30T22:43:14.848Z,3.30
2018-12-30T22:45:43.242Z,4.10
2018-12-30T22:48:11.670Z,4.73
2018-12-30T22:50:40.118Z,3.20
2018-12-30T22:53:08.561Z,3.70
2018-12-30T22:55:36.979Z,3.70
2018-12-30T22:58:05.402Z,4.27
2018-12-30T23:00:51.557Z,3.73
2018-12-30T23:03:20.059Z,3.70
2018-12-30T23:05:48.852Z,3.37
2018-12-30T23:08:18.341Z,3.37
2018-12-30T23:10:48.441Z,3.47
2018-12-30T23:13:16.821Z,3.40
2018-12-30T23:15:45.253Z,3.33
2018-12-30T23:18:13.667Z,3.80
2018-12-30T23:20:42.995Z,3.57
2018-12-30T23:23:12.601Z,3.20
2018-12-30T23:25:41.042Z,3.90
2018-12-30T23:28:09.441Z,3.20
2018-12-30T23:30:37.873Z,3.50
2018-12-30T23:33:06.289Z,3.23
2018-12-30T23:35:34.812Z,3.23
2018-12-30T23:38:03.777Z,3.63
2018-12-30T23:40:32.201Z,3.20
2018-12-30T23:43:00.615Z,4.23
2018-12-30T23:45:29.065Z,3.40
2018-12-30T23:47:57.457Z,3.87
2018-12-30T23:50:25.898Z,3.90
2018-12-30T23:52:54.659Z,3.63
2018-12-30T23:55:23.033Z,4.07
2018-12-30T23:57:51.477Z,3.67
